createdAt,value
2018-04-25T00:01:42.181Z,9.77
2018-04-25T00:04:11.491Z,9.43
2018-04-25T00:06:39.932Z,9.43
2018-04-25T00:09:08.443Z,9.38
2018-04-25T00:11:37.817Z,11.98
2018-04-25T00:14:06.216Z,9.23
2018-04-25T00:16:34.877Z,9.18
2018-04-25T00:19:04.137Z,9.88
2018-04-25T00:21:32.598Z,10.50
2018-04-25T00:24:01.060Z,10.63
2018-04-25T00:26:30.197Z,10.75
2018-04-25T00:28:58.577Z,11.40
2018-04-25T00:31:26.966Z,9.68
2018-04-25T00:33:57.112Z,10.85
2018-04-25T00:36:25.493Z,11.57
2018-04-25T00:38:53.849Z,10.90
2018-04-25T00:41:24.012Z,13.35
2018-04-25T00:43:52.389Z,11.73
2018-04-25T00:46:20.856Z,11.15
2018-04-25T00:48:49.370Z,11.25
2018-04-25T00:51:17.784Z,12.30
2018-04-25T00:53:46.296Z,13.73
2018-04-25T00:56:15.510Z,12.50
2018-04-25T00:58:44.952Z,12.68
2018-04-25T01:01:13.381Z,12.98
2018-04-25T01:03:42.017Z,12.10
2018-04-25T01:06:10.401Z,13.07
2018-04-25T01:08:38.819Z,12.65
2018-04-25T01:11:07.415Z,13.25
2018-04-25T01:13:36.857Z,13.95
2018-04-25T01:16:05.322Z,13.32
2018-04-25T01:18:35.250Z,13.05
2018-04-25T01:21:03.890Z,13.23
2018-04-25T01:23:32.269Z,14.20
2018-04-25T01:26:10.654Z,12.82
2018-04-25T01:28:41.042Z,13.70
2018-04-25T01:31:18.899Z,12.98
2018-04-25T01:33:55.206Z,13.73
2018-04-25T01:36:29.535Z,13.43
2018-04-25T01:39:03.930Z,13.82
2018-04-25T01:41:32.316Z,13.77
2018-04-25T01:44:00.709Z,12.82
2018-04-25T01:46:30.670Z,12.55
2018-04-25T01:49:13.672Z,12.82
2018-04-25T01:51:53.884Z,11.93
2018-04-25T01:54:35.468Z,13.18
2018-04-25T01:57:15.586Z,12.73
2018-04-25T01:59:56.168Z,10.85
2018-04-25T02:02:24.017Z,10.27
2018-04-25T02:04:52.378Z,10.63
2018-04-25T02:07:20.756Z,10.93
2018-04-25T02:09:49.152Z,11.82
2018-04-25T02:12:17.577Z,10.63
2018-04-25T02:14:46.560Z,10.35
2018-04-25T02:17:15.086Z,9.50
2018-04-25T02:19:43.491Z,11.10
2018-04-25T02:22:11.906Z,10.07
2018-04-25T02:24:40.319Z,10.13
2018-04-25T02:27:08.817Z,11.32
2018-04-25T02:29:37.307Z,11.23
2018-04-25T02:32:05.686Z,10.88
2018-04-25T02:34:34.054Z,11.60
2018-04-25T02:37:02.443Z,13.85
2018-04-25T02:39:30.822Z,12.93
2018-04-25T02:41:59.252Z,13.15
2018-04-25T02:44:28.391Z,13.93
2018-04-25T02:46:56.742Z,13.75
2018-04-25T02:49:25.122Z,13.98
2018-04-25T02:51:53.527Z,14.38
2018-04-25T02:54:21.924Z,15.07
2018-04-25T02:56:50.338Z,14.55
2018-04-25T02:59:18.742Z,16.70
2018-04-25T03:01:47.132Z,16.17
2018-04-25T03:04:15.708Z,17.50
2018-04-25T03:06:44.193Z,17.52
2018-04-25T03:09:12.607Z,17.73
2018-04-25T03:11:41.011Z,21.77
2018-04-25T03:14:09.565Z,18.92
2018-04-25T03:16:38.106Z,19.02
2018-04-25T03:19:06.595Z,20.02
2018-04-25T03:21:35.095Z,20.30
2018-04-25T03:24:03.510Z,21.00
2018-04-25T03:26:31.876Z,24.55
2018-04-25T03:29:01.138Z,23.62
2018-04-25T03:31:29.511Z,25.37
2018-04-25T03:33:57.892Z,26.83
2018-04-25T03:36:26.289Z,28.73
2018-04-25T03:38:54.744Z,31.05
2018-04-25T03:41:23.131Z,30.80
2018-04-25T03:43:51.517Z,34.10
2018-04-25T03:46:19.895Z,32.67
2018-04-25T03:48:48.354Z,36.17
2018-04-25T03:51:16.800Z,36.55
2018-04-25T03:53:45.261Z,38.53
2018-04-25T03:56:13.808Z,38.10
2018-04-25T03:58:43.823Z,39.40
2018-04-25T04:01:12.307Z,39.42
2018-04-25T04:03:40.792Z,41.53
2018-04-25T04:06:09.779Z,42.62
2018-04-25T04:08:38.365Z,45.30
2018-04-25T04:11:06.881Z,46.03
2018-04-25T04:13:35.435Z,45.63
2018-04-25T04:16:05.243Z,46.63
2018-04-25T04:18:35.091Z,48.13
2018-04-25T04:21:04.667Z,48.75
2018-04-25T04:23:33.161Z,52.30
2018-04-25T04:26:01.551Z,48.13
2018-04-25T04:28:30.668Z,52.95
2018-04-25T04:30:59.065Z,49.72
2018-04-25T04:33:27.440Z,50.87
2018-04-25T04:35:56.873Z,49.53
2018-04-25T04:38:25.283Z,50.90
2018-04-25T04:40:53.683Z,51.50
2018-04-25T04:43:22.939Z,51.13
2018-04-25T04:45:51.361Z,49.27
2018-04-25T04:48:19.741Z,48.00
2018-04-25T04:50:48.144Z,49.50
2018-04-25T04:53:16.496Z,47.33
2018-04-25T04:55:44.969Z,44.50
2018-04-25T04:58:13.907Z,43.93
2018-04-25T05:00:42.310Z,41.00
2018-04-25T05:03:10.953Z,41.20
2018-04-25T05:05:39.483Z,43.40
2018-04-25T05:08:07.886Z,40.57
2018-04-25T05:10:36.317Z,41.87
2018-04-25T05:13:04.908Z,38.30
2018-04-25T05:15:33.257Z,40.50
2018-04-25T05:18:01.689Z,41.00
2018-04-25T05:20:30.078Z,42.20
2018-04-25T05:22:58.398Z,38.37
2018-04-25T05:25:26.795Z,37.50
2018-04-25T05:27:55.206Z,38.40
2018-04-25T05:30:23.642Z,36.97
2018-04-25T05:32:52.093Z,38.70
2018-04-25T05:35:20.565Z,35.77
2018-04-25T05:37:48.951Z,34.60
2018-04-25T05:40:17.382Z,37.03
2018-04-25T05:42:45.814Z,36.60
2018-04-25T05:45:14.195Z,37.90
2018-04-25T05:47:42.579Z,37.37
2018-04-25T05:50:10.995Z,35.73
2018-04-25T05:52:39.485Z,34.10
2018-04-25T05:55:07.904Z,34.93
2018-04-25T05:57:36.294Z,33.40
2018-04-25T06:00:04.774Z,33.60
2018-04-25T06:02:33.206Z,33.23
2018-04-25T06:05:02.224Z,32.13
2018-04-25T06:07:30.573Z,29.50
2018-04-25T06:09:59.008Z,27.90
2018-04-25T06:12:28.231Z,25.90
2018-04-25T06:14:56.613Z,23.30
2018-04-25T06:17:25.079Z,22.97
2018-04-25T06:19:53.794Z,22.40
2018-04-25T06:22:22.177Z,25.00
2018-04-25T06:24:50.518Z,22.30
2018-04-25T06:27:18.921Z,22.20
2018-04-25T06:29:47.266Z,22.57
2018-04-25T06:32:15.701Z,18.70
2018-04-25T06:34:44.630Z,21.13
2018-04-25T06:37:13.032Z,20.00
2018-04-25T06:39:41.514Z,18.63
2018-04-25T06:42:10.083Z,19.40
2018-04-25T06:44:38.666Z,18.37
2018-04-25T06:47:07.196Z,16.40
2018-04-25T06:49:35.836Z,15.93
2018-04-25T06:52:04.240Z,15.77
2018-04-25T06:54:32.691Z,16.90
2018-04-25T06:57:01.172Z,17.33
2018-04-25T06:59:29.763Z,14.53
2018-04-25T07:01:58.132Z,13.70
2018-04-25T07:04:26.520Z,12.33
2018-04-25T07:06:54.984Z,10.43
2018-04-25T07:09:23.354Z,11.37
2018-04-25T07:11:51.992Z,8.57
2018-04-25T07:17:12.495Z,7.20
2018-04-25T07:19:41.015Z,8.00
2018-04-25T07:22:09.419Z,8.17
2018-04-25T07:24:39.354Z,7.80
2018-04-25T07:27:07.836Z,6.90
2018-04-25T07:29:36.382Z,7.17
2018-04-25T07:32:05.247Z,7.30
2018-04-25T07:34:34.139Z,6.97
2018-04-25T07:37:02.497Z,6.97
2018-04-25T07:39:30.872Z,6.50
2018-04-25T07:41:59.296Z,7.03
2018-04-25T07:44:27.572Z,5.70
2018-04-25T07:46:56.289Z,7.03
2018-04-25T07:49:24.651Z,7.20
2018-04-25T07:51:55.760Z,6.57
2018-04-25T07:54:24.193Z,7.13
2018-04-25T07:56:52.533Z,7.17
2018-04-25T07:59:20.888Z,7.53
2018-04-25T08:01:50.339Z,7.90
2018-04-25T08:04:18.674Z,8.17
2018-04-25T08:06:47.083Z,8.23
2018-04-25T08:09:15.501Z,6.30
2018-04-25T08:11:43.955Z,7.70
2018-04-25T08:14:24.344Z,7.43
2018-04-25T08:17:04.424Z,8.07
2018-04-25T08:19:44.632Z,8.87
2018-04-25T08:22:13.018Z,8.50
2018-04-25T08:24:41.417Z,6.30
2018-04-25T08:27:11.336Z,3.33
2018-04-25T08:29:39.757Z,4.00
2018-04-25T08:32:08.278Z,4.00
2018-04-25T08:34:36.862Z,5.27
2018-04-25T08:37:05.466Z,6.37
2018-04-25T08:39:33.886Z,5.63
2018-04-25T08:42:06.423Z,6.50
2018-04-25T08:44:34.921Z,6.50
2018-04-25T08:47:03.298Z,7.57
2018-04-25T08:49:32.109Z,6.57
2018-04-25T08:52:00.497Z,6.22
2018-04-25T08:54:28.842Z,5.53
2018-04-25T08:56:57.245Z,4.20
2018-04-25T08:59:25.623Z,4.30
2018-04-25T09:01:53.976Z,3.37
2018-04-25T09:04:22.356Z,5.27
2018-04-25T09:06:50.760Z,4.20
2018-04-25T09:09:19.116Z,4.55
2018-04-25T09:11:47.576Z,4.53
2018-04-25T09:14:16.228Z,5.00
2018-04-25T09:16:44.662Z,5.45
2018-04-25T09:19:16.193Z,5.30
2018-04-25T09:21:44.653Z,5.97
2018-04-25T09:24:14.072Z,5.78
2018-04-25T09:26:42.621Z,5.75
2018-04-25T09:29:11.025Z,6.00
2018-04-25T09:31:39.763Z,4.85
2018-04-25T09:34:08.294Z,5.07
2018-04-25T09:36:36.704Z,5.22
2018-04-25T09:39:05.287Z,5.50
2018-04-25T09:41:34.511Z,5.15
2018-04-25T09:44:02.900Z,6.18
2018-04-25T09:46:31.268Z,2.90
2018-04-25T09:48:59.721Z,3.15
2018-04-25T09:51:28.094Z,4.55
2018-04-25T09:53:56.453Z,4.12
2018-04-25T09:56:25.311Z,3.80
2018-04-25T09:58:53.664Z,4.15
2018-04-25T10:01:27.638Z,4.32
2018-04-25T10:03:56.008Z,3.60
2018-04-25T10:06:24.389Z,4.85
2018-04-25T10:08:52.792Z,2.83
2018-04-25T10:11:21.155Z,2.25
2018-04-25T10:13:49.469Z,2.58
2018-04-25T10:16:18.764Z,2.10
2018-04-25T10:18:47.223Z,1.92
2018-04-25T10:21:15.598Z,1.73
2018-04-25T10:23:43.998Z,1.70
2018-04-25T10:26:12.423Z,1.40
2018-04-25T10:28:40.912Z,1.40
2018-04-25T10:31:09.895Z,1.45
2018-04-25T10:33:38.291Z,1.75
2018-04-25T10:36:07.078Z,1.48
2018-04-25T10:38:35.532Z,2.10
2018-04-25T10:41:03.982Z,1.48
2018-04-25T10:43:32.388Z,1.20
2018-04-25T10:46:00.768Z,1.70
2018-04-25T10:48:29.328Z,1.90
2018-04-25T10:50:57.737Z,1.37
2018-04-25T10:53:26.116Z,1.90
2018-04-25T10:55:55.419Z,1.40
2018-04-25T10:58:23.790Z,1.83
2018-04-25T11:00:52.198Z,2.00
2018-04-25T11:03:20.627Z,1.60
2018-04-25T11:05:49.000Z,1.33
2018-04-25T11:08:18.051Z,2.70
2018-04-25T11:10:46.480Z,1.27
2018-04-25T11:13:14.919Z,1.60
2018-04-25T11:15:43.363Z,1.80
2018-04-25T11:18:11.836Z,1.05
2018-04-25T11:20:40.316Z,1.65
2018-04-25T11:23:08.781Z,1.37
2018-04-25T11:25:38.366Z,0.98
2018-04-25T11:28:06.821Z,0.80
2018-04-25T11:30:35.456Z,1.10
2018-04-25T11:33:03.899Z,1.20
2018-04-25T11:35:32.248Z,0.90
2018-04-25T11:38:00.702Z,0.80
2018-04-25T11:40:28.973Z,0.73
2018-04-25T11:42:57.329Z,0.90
2018-04-25T11:45:26.139Z,0.80
2018-04-25T11:47:54.495Z,0.70
2018-04-25T11:50:22.874Z,0.70
2018-04-25T11:52:51.275Z,1.00
2018-04-25T11:55:19.684Z,0.97
2018-04-25T11:57:48.061Z,0.80
2018-04-25T12:00:16.505Z,0.80
2018-04-25T12:02:45.961Z,0.80
2018-04-25T12:05:14.486Z,0.80
2018-04-25T12:07:43.926Z,1.13
2018-04-25T12:10:12.349Z,0.90
2018-04-25T12:12:40.763Z,1.00
2018-04-25T12:15:09.174Z,1.07
2018-04-25T12:17:37.576Z,0.90
2018-04-25T12:20:06.123Z,0.93
2018-04-25T12:22:35.461Z,1.07
2018-04-25T12:25:03.854Z,1.37
2018-04-25T12:27:32.251Z,0.90
2018-04-25T12:30:01.491Z,0.90
2018-04-25T12:32:29.827Z,0.97
2018-04-25T12:34:58.177Z,1.17
2018-04-25T12:37:26.583Z,1.17
2018-04-25T12:39:54.937Z,1.17
2018-04-25T12:42:23.264Z,1.47
2018-04-25T12:44:51.951Z,1.30
2018-04-25T12:47:20.387Z,1.30
2018-04-25T12:49:48.687Z,1.23
2018-04-25T12:52:17.138Z,1.10
2018-04-25T12:54:45.517Z,0.80
2018-04-25T12:57:13.912Z,1.67
2018-04-25T12:59:42.469Z,1.40
2018-04-25T13:02:10.893Z,1.00
2018-04-25T13:04:39.346Z,1.10
2018-04-25T13:07:08.111Z,1.30
2018-04-25T13:09:36.574Z,1.20
2018-04-25T13:12:04.967Z,1.20
2018-04-25T13:14:33.550Z,1.23
2018-04-25T13:17:01.922Z,1.20
2018-04-25T13:19:30.299Z,1.40
2018-04-25T13:21:58.655Z,1.20
2018-04-25T13:24:26.993Z,1.37
2018-04-25T13:26:55.339Z,1.30
2018-04-25T13:29:24.117Z,2.43
2018-04-25T13:31:52.575Z,1.20
2018-04-25T13:34:24.974Z,1.60
2018-04-25T13:36:53.761Z,1.60
2018-04-25T13:39:23.165Z,1.93
2018-04-25T13:41:51.625Z,1.50
2018-04-25T13:44:20.040Z,2.30
2018-04-25T13:46:48.517Z,1.50
2018-04-25T13:49:16.986Z,1.53
2018-04-25T13:51:45.707Z,1.63
2018-04-25T13:54:14.162Z,1.93
2018-04-25T13:56:42.586Z,1.40
2018-04-25T13:59:11.962Z,1.47
2018-04-25T14:01:40.540Z,1.93
2018-04-25T14:04:08.946Z,1.23
2018-04-25T14:06:38.089Z,1.40
2018-04-25T14:09:06.680Z,1.70
2018-04-25T14:11:35.215Z,2.23
2018-04-25T14:14:07.556Z,1.50
2018-04-25T14:16:36.134Z,1.63
2018-04-25T14:19:04.510Z,1.40
2018-04-25T14:21:33.298Z,2.30
2018-04-25T14:24:01.659Z,1.50
2018-04-25T14:26:30.086Z,1.77
2018-04-25T14:28:58.757Z,2.10
2018-04-25T14:31:27.122Z,1.77
2018-04-25T14:33:55.464Z,1.87
2018-04-25T14:36:23.884Z,1.70
2018-04-25T14:38:52.362Z,1.80
2018-04-25T14:41:20.709Z,1.53
2018-04-25T14:43:51.035Z,1.47
2018-04-25T14:46:19.450Z,1.90
2018-04-25T14:48:47.816Z,1.50
2018-04-25T14:51:16.807Z,2.60
2018-04-25T14:53:45.267Z,2.47
2018-04-25T14:56:13.741Z,2.20
2018-04-25T14:58:42.151Z,2.67
2018-04-25T15:01:11.142Z,2.47
2018-04-25T15:03:39.496Z,2.47
2018-04-25T15:06:08.164Z,2.47
2018-04-25T15:08:36.513Z,2.07
2018-04-25T15:11:05.093Z,2.50
2018-04-25T15:13:33.541Z,1.90
2018-04-25T15:16:01.869Z,2.40
2018-04-25T15:18:30.194Z,2.63
2018-04-25T15:20:59.085Z,2.27
2018-04-25T15:23:27.406Z,2.10
2018-04-25T15:25:55.802Z,1.70
2018-04-25T15:28:25.951Z,2.20
2018-04-25T15:30:54.286Z,2.50
2018-04-25T15:33:22.621Z,3.00
2018-04-25T15:35:52.062Z,2.47
2018-04-25T15:38:20.414Z,1.60
2018-04-25T15:40:48.809Z,2.50
2018-04-25T15:43:17.756Z,2.50
2018-04-25T15:45:46.095Z,3.50
2018-04-25T15:48:14.544Z,2.60
2018-04-25T15:50:43.880Z,1.80
2018-04-25T15:53:12.363Z,2.37
2018-04-25T15:55:41.024Z,1.87
2018-04-25T15:58:10.551Z,2.50
2018-04-25T16:00:39.157Z,2.37
2018-04-25T16:03:07.723Z,1.93
2018-04-25T16:05:36.398Z,2.30
2018-04-25T16:08:04.850Z,2.73
2018-04-25T16:10:33.347Z,1.83
2018-04-25T16:13:02.195Z,1.67
2018-04-25T16:15:30.537Z,2.23
2018-04-25T16:17:58.874Z,2.33
2018-04-25T16:20:27.247Z,2.43
2018-04-25T16:22:55.667Z,2.25
2018-04-25T16:25:24.068Z,2.53
2018-04-25T16:27:52.752Z,3.87
2018-04-25T16:30:21.106Z,3.83
2018-04-25T16:32:49.487Z,2.85
2018-04-25T16:35:18.684Z,3.42
2018-04-25T16:37:47.297Z,3.03
2018-04-25T16:40:15.913Z,2.70
2018-04-25T16:42:44.499Z,3.22
2018-04-25T16:45:13.040Z,3.00
2018-04-25T16:47:41.743Z,2.50
2018-04-25T16:50:10.588Z,2.20
2018-04-25T16:52:39.146Z,2.10
2018-04-25T16:55:07.620Z,2.62
2018-04-25T16:57:36.174Z,1.98
2018-04-25T17:00:05.006Z,1.90
2018-04-25T17:02:34.806Z,2.78
2018-04-25T17:05:06.030Z,2.40
2018-04-25T17:07:35.607Z,3.17
2018-04-25T17:10:05.079Z,3.00
2018-04-25T17:12:33.809Z,2.90
2018-04-25T17:15:02.160Z,2.40
2018-04-25T17:17:30.739Z,2.00
2018-04-25T17:19:59.775Z,2.70
2018-04-25T17:22:28.157Z,2.70
2018-04-25T17:24:56.469Z,1.80
2018-04-25T17:27:24.846Z,1.98
2018-04-25T17:29:54.828Z,1.93
2018-04-25T17:32:25.219Z,1.80
2018-04-25T17:34:56.227Z,2.40
2018-04-25T17:37:25.172Z,1.77
2018-04-25T17:39:54.410Z,2.20
2018-04-25T17:42:22.923Z,1.63
2018-04-25T17:44:51.277Z,2.10
2018-04-25T17:47:19.682Z,2.63
2018-04-25T17:49:48.063Z,1.70
2018-04-25T17:52:16.519Z,1.20
2018-04-25T17:54:44.947Z,1.80
2018-04-25T17:57:13.408Z,1.50
2018-04-25T17:59:41.815Z,1.70
2018-04-25T18:02:10.290Z,4.30
2018-04-25T18:04:39.073Z,1.70
2018-04-25T18:07:07.628Z,1.70
2018-04-25T18:09:36.128Z,1.60
2018-04-25T18:12:04.541Z,1.47
2018-04-25T18:14:32.898Z,1.50
2018-04-25T18:17:01.364Z,1.40
2018-04-25T18:19:29.939Z,1.77
2018-04-25T18:21:58.278Z,1.60
2018-04-25T18:24:26.635Z,1.62
2018-04-25T18:26:56.024Z,1.73
2018-04-25T18:29:24.436Z,1.83
2018-04-25T18:31:52.783Z,1.50
2018-04-25T18:34:21.245Z,1.58
2018-04-25T18:36:49.578Z,1.70
2018-04-25T18:39:17.975Z,1.20
2018-04-25T18:41:46.603Z,1.90
2018-04-25T18:44:15.013Z,2.20
2018-04-25T18:46:43.550Z,1.58
2018-04-25T18:49:11.986Z,2.10
2018-04-25T18:51:40.556Z,2.47
2018-04-25T18:54:08.946Z,5.57
2018-04-25T18:56:37.506Z,2.40
2018-04-25T18:59:05.981Z,2.90
2018-04-25T19:01:34.523Z,2.90
2018-04-25T19:04:04.209Z,2.40
2018-04-25T19:06:32.794Z,3.90
2018-04-25T19:09:01.328Z,4.00
2018-04-25T19:11:30.291Z,2.97
2018-04-25T19:13:58.674Z,3.20
2018-04-25T19:16:29.035Z,2.58
2018-04-25T19:18:57.511Z,2.67
2018-04-25T19:21:25.858Z,2.97
2018-04-25T19:23:54.204Z,3.60
2018-04-25T19:26:22.618Z,1.80
2018-04-25T19:28:50.994Z,3.10
2018-04-25T19:31:19.375Z,4.57
2018-04-25T19:33:48.163Z,2.90
2018-04-25T19:36:16.623Z,2.70
2018-04-25T19:38:45.038Z,2.58
2018-04-25T19:41:13.584Z,3.35
2018-04-25T19:43:42.437Z,3.58
2018-04-25T19:46:11.197Z,2.62
2018-04-25T19:48:39.809Z,2.42
2018-04-25T19:51:08.275Z,3.92
2018-04-25T19:53:36.647Z,3.35
2018-04-25T19:56:05.255Z,2.62
2018-04-25T19:58:33.721Z,3.95
2018-04-25T20:01:02.142Z,3.35
2018-04-25T20:03:30.592Z,4.45
2018-04-25T20:05:58.996Z,7.47
2018-04-25T20:08:27.371Z,4.20
2018-04-25T20:10:55.922Z,4.18
2018-04-25T20:13:26.267Z,4.90
2018-04-25T20:15:54.599Z,6.23
2018-04-25T20:18:23.351Z,6.30
2018-04-25T20:20:51.698Z,7.85
2018-04-25T20:23:20.217Z,6.50
2018-04-25T20:25:49.106Z,8.07
2018-04-25T20:28:17.484Z,6.55
2018-04-25T20:30:46.044Z,6.00
2018-04-25T20:33:14.535Z,6.45
2018-04-25T20:35:43.074Z,7.47
2018-04-25T20:38:11.481Z,8.90
2018-04-25T20:40:40.010Z,9.90
2018-04-25T20:43:08.420Z,8.80
2018-04-25T20:45:36.801Z,9.85
2018-04-25T20:48:06.004Z,9.68
2018-04-25T20:50:34.456Z,11.07
2018-04-25T20:53:02.837Z,11.90
2018-04-25T20:55:31.719Z,10.70
2018-04-25T20:58:00.101Z,10.50
2018-04-25T21:00:28.617Z,11.30
2018-04-25T21:02:57.014Z,12.27
2018-04-25T21:05:25.394Z,11.38
2018-04-25T21:07:53.746Z,11.98
2018-04-25T21:10:22.446Z,12.30
2018-04-25T21:12:50.811Z,12.82
2018-04-25T21:15:19.253Z,13.57
2018-04-25T21:17:47.909Z,14.23
2018-04-25T21:20:16.369Z,12.93
2018-04-25T21:22:44.791Z,13.45
2018-04-25T21:25:13.319Z,14.45
2018-04-25T21:27:41.675Z,14.05
2018-04-25T21:30:10.213Z,16.58
2018-04-25T21:32:40.154Z,15.07
2018-04-25T21:35:08.511Z,16.73
2018-04-25T21:37:36.960Z,16.27
2018-04-25T21:40:05.435Z,18.65
2018-04-25T21:42:34.392Z,16.65
2018-04-25T21:45:02.766Z,15.82
2018-04-25T21:47:31.166Z,15.57
2018-04-25T21:49:59.522Z,17.58
2018-04-25T21:52:27.871Z,15.98
2018-04-25T21:54:56.353Z,16.58
2018-04-25T21:57:24.722Z,18.60
2018-04-25T21:59:53.088Z,19.73
2018-04-25T22:02:22.134Z,17.23
2018-04-25T22:04:50.477Z,17.25
2018-04-25T22:07:18.868Z,13.52
2018-04-25T22:09:47.284Z,14.27
2018-04-25T22:12:15.678Z,11.00
2018-04-25T22:14:44.074Z,10.57
2018-04-25T22:17:12.520Z,10.95
2018-04-25T22:19:40.866Z,9.57
2018-04-25T22:22:09.357Z,8.30
2018-04-25T22:24:38.035Z,8.45
2018-04-25T22:27:06.540Z,7.85
2018-04-25T22:29:34.943Z,8.35
2018-04-25T22:32:03.748Z,7.40
2018-04-25T22:34:32.095Z,8.13
2018-04-25T22:37:00.424Z,8.25
2018-04-25T22:39:28.852Z,7.20
2018-04-25T22:41:57.177Z,7.53
2018-04-25T22:44:25.531Z,7.07
2018-04-25T22:46:54.829Z,7.15
2018-04-25T22:49:23.199Z,6.37
2018-04-25T22:51:51.547Z,6.78
2018-04-25T22:54:20.589Z,7.50
2018-04-25T22:56:48.921Z,5.30
2018-04-25T22:59:17.374Z,5.70
2018-04-25T23:01:45.904Z,5.45
2018-04-25T23:04:14.311Z,6.18
2018-04-25T23:06:42.732Z,5.05
2018-04-25T23:09:11.131Z,5.18
2018-04-25T23:11:39.498Z,5.22
2018-04-25T23:14:07.922Z,4.60
2018-04-25T23:16:37.187Z,4.37
2018-04-25T23:19:05.619Z,5.20
2018-04-25T23:21:34.032Z,4.90
2018-04-25T23:24:02.862Z,4.55
2018-04-25T23:26:31.854Z,4.75
2018-04-25T23:29:00.202Z,4.43
2018-04-25T23:31:28.548Z,4.87
2018-04-25T23:33:56.941Z,5.10
2018-04-25T23:36:25.337Z,4.75
2018-04-25T23:38:54.060Z,4.62
2018-04-25T23:41:22.394Z,3.85
2018-04-25T23:43:50.751Z,5.78
2018-04-25T23:46:20.214Z,4.87
2018-04-25T23:48:48.597Z,4.60
2018-04-25T23:51:16.921Z,4.68
2018-04-25T23:53:45.327Z,5.22
2018-04-25T23:56:13.864Z,5.20
2018-04-25T23:58:42.220Z,4.93
